Terminal Aerodrome Forecast
Issued by NWS Louisville, KY

Home | Current Version | Previous Version | Text Only | Print | Product List | Glossary On
Versions: 1 2 3 4 5 6 7 8 9 10 11 12 13 14 15 16
813
FTUS43 KLMK 290530
TAFLEX
TAF
KLEX 290530Z 2906/3006 VRB04KT P6SM SCT250
      TEMPO 2908/2912 5SM BR
     FM291600 07008KT P6SM SCT040 PROB30 2919/2923 VRB15G30KT 3SM
      TSRA BKN040CB
     FM300000 05006KT P6SM FEW050 SCT250=

USA.gov is the U.S. government's official web portal to all federal, state and local government web resources and services.